WetterOnline ( https://www.wetteronline.de )

Wetter aktuell Meckenheim

Aktuelles Wetter: Königswinter-Heiderhof (147m)

6-stündlich | Neueste Meldungen
Ortszeit Temperatur Wetter
Mi, 18.05. 8:00 19.6° C wolkig
Mi, 18.05. 2:00 20.6° C bewölkt
Di, 17.05. 20:00 22.4° C bedeckt
Di, 17.05. 14:00 22.7° C wolkig
Di, 17.05. 8:00 15.6° C wolkig
Di, 17.05. 2:00 13.8° C wolkenlos
Mo, 16.05. 20:00 18.7° C bedeckt
Mo, 16.05. 14:00 21.8° C leichter Regen
Ortszeit Temperatur Wetter
Mi, 18.05. 11:30 25.2° C wolkenlos
Mi, 18.05. 11:20 25.2° C wolkenlos
Mi, 18.05. 11:10 25.1° C wolkenlos
Mi, 18.05. 11:00 24.3° C fast wolkenlos
Mi, 18.05. 10:50 24.3° C fast wolkenlos
Mi, 18.05. 10:40 24.5° C leicht bewölkt
Mi, 18.05. 10:30 24.3° C leicht bewölkt
Mi, 18.05. 10:00 23.5° C leicht bewölkt
Mi, 18.05. 9:30 22.9° C leicht bewölkt
Mi, 18.05. 9:00 22.4° C wolkig
Mi, 18.05. 8:30 20.8° C Dunst
Ortszeit Relative Feuchte Sichtweite
Mi, 18.05. 8:00 67% 55 km
Mi, 18.05. 2:00 56% 60 km
Di, 17.05. 20:00 54% 65 km
Di, 17.05. 14:00 57% >70 km
Di, 17.05. 8:00 81% 50 km
Di, 17.05. 2:00 94% 21 km
Mo, 16.05. 20:00 75% 45 km
Mo, 16.05. 14:00 70% 18 km
Ortszeit Relative Feuchte Sichtweite
Mi, 18.05. 11:30 45% 50 km
Mi, 18.05. 11:20 45% -
Mi, 18.05. 11:10 46% -
Mi, 18.05. 11:00 47% 55 km
Mi, 18.05. 10:50 47% -
Mi, 18.05. 10:40 49% -
Mi, 18.05. 10:30 51% 65 km
Mi, 18.05. 10:00 51% >70 km
Mi, 18.05. 9:30 51% 50 km
Mi, 18.05. 9:00 51% 50 km
Mi, 18.05. 8:30 62% 1.0 km
Ortszeit Niederschlagsmenge Niederschlagsart
Mi, 18.05. 8:00 0.0 l/m2 in 12 Std. -
Mi, 18.05. 2:00 0.0 l/m2 in 6 Std. -
Di, 17.05. 20:00 0.0 l/m2 in 12 Std. -
Di, 17.05. 14:00 0.0 l/m2 in 6 Std. -
Di, 17.05. 8:00 0.0 l/m2 in 12 Std. -
Di, 17.05. 2:00 0.0 l/m2 in 6 Std. -
Mo, 16.05. 20:00 5 l/m2 in 12 Std. Regen
Mo, 16.05. 14:00 0.3 l/m2 in 6 Std. Regen
Ortszeit Niederschlagsmenge Niederschlagsart
Mi, 18.05. 11:30 0.0 l/m2 in 1 Std. -
Mi, 18.05. 11:20 keine Meldung -
Mi, 18.05. 11:10 keine Meldung -
Mi, 18.05. 11:00 0.0 l/m2 in 1 Std. -
Mi, 18.05. 10:50 keine Meldung -
Mi, 18.05. 10:40 keine Meldung -
Mi, 18.05. 10:30 0.0 l/m2 in 1 Std. -
Mi, 18.05. 10:00 0.0 l/m2 in 1 Std. -
Mi, 18.05. 9:30 0.0 l/m2 in 1 Std. -
Mi, 18.05. 9:00 0.0 l/m2 in 1 Std. -
Mi, 18.05. 8:30 0.0 l/m2 in 1 Std. -
Ortszeit Stärke Spitze Richtung
km/h Bft. km/h Grad Sektor
Mi, 18.05. 8:00 4 1 22 10° N
Mi, 18.05. 2:00 14 3 29 160° S
Di, 17.05. 20:00 9 2 20 120° SO
Di, 17.05. 14:00 11 2 18 110° O
Di, 17.05. 8:00 6 1 20 170° S
Di, 17.05. 2:00 13 3 19 230° SW
Mo, 16.05. 20:00 7 2 29 270° W
Mo, 16.05. 14:00 7 2 17 250° W
Ortszeit Stärke Spitze Richtung
km/h Bft. km/h Grad Sektor
Mi, 18.05. 11:30 13 3 22 160° S
Mi, 18.05. 11:20 13 3 - 160° S
Mi, 18.05. 11:10 14 3 - 170° S
Mi, 18.05. 11:00 15 3 24 170° S
Mi, 18.05. 10:50 15 3 - 170° S
Mi, 18.05. 10:40 17 3 - 160° S
Mi, 18.05. 10:30 18 3 25 150° SO
Mi, 18.05. 10:00 17 3 31 160° S
Mi, 18.05. 9:30 14 3 25 160° S
Mi, 18.05. 9:00 11 2 22 150° SO
Mi, 18.05. 8:30 7 2 14 120° SO
Ortszeit Untergrenze Bedeckung Gattung
total tief tief mittel hoch
Mi, 18.05. 8:00 2400 m 7/8 5/8 - - -
Mi, 18.05. 2:00 2700 m 8/8 7/8 - - -
Di, 17.05. 20:00 4800 m 8/8 8/8 - - -
Di, 17.05. 14:00 2700 m 8/8 2/8 - - -
Di, 17.05. 8:00 5400 m 8/8 3/8 - - -
Di, 17.05. 2:00 - 0/8 0/8 - - -
Mo, 16.05. 20:00 3300 m 8/8 8/8 - - -
Mo, 16.05. 14:00 1800 m 8/8 3/8 - - -
Ortszeit Bedeckungsgrad in Achtel und Wolkenuntergrenze
Mi, 18.05. 11:30 keine Wolken
Mi, 18.05. 11:20 keine Wolken
Mi, 18.05. 11:10 keine Wolken
Mi, 18.05. 11:00 2(10500m)
Mi, 18.05. 10:50 2(10500m)
Mi, 18.05. 10:40 4
Mi, 18.05. 10:30 6(10500m)
Mi, 18.05. 10:00 1(7500m) 3(10500m)
Mi, 18.05. 9:30 5(7500m)
Mi, 18.05. 9:00 1(2700m) 7(7200m) 7(8700m)
Mi, 18.05. 8:30 8(2400m) 8(7200m)
Ortszeit Luftdruck NN (hPa) Tendenz (hPa in 3 Std.)
Mi, 18.05. 8:00 1022 + 1,1
Mi, 18.05. 2:00 1020 + 0,5
Di, 17.05. 20:00 1019 - 0,8
Di, 17.05. 14:00 1021 - 0,9
Di, 17.05. 8:00 1022 + 0,7
Di, 17.05. 2:00 1021 + 0,5
Mo, 16.05. 20:00 1019 + 1,2
Mo, 16.05. 14:00 1016 + 0,1
Ortszeit Luftdruck NN (hPa) Tendenz (hPa in 3 Std.)
Mi, 18.05. 11:30 1022 + 0,1
Mi, 18.05. 11:20 1022 keine Meldung
Mi, 18.05. 11:10 1022 keine Meldung
Mi, 18.05. 11:00 1022 + 0,2
Mi, 18.05. 10:50 1022 keine Meldung
Mi, 18.05. 10:40 1022 keine Meldung
Mi, 18.05. 10:30 1022 + 0,4
Mi, 18.05. 10:00 1022 + 0,7
Mi, 18.05. 9:30 1022 + 0,9
Mi, 18.05. 9:00 1022 + 0,9
Mi, 18.05. 8:30 1022 + 1,1
Ortszeit Schneehöhe (cm)
Mi, 18.05. 8:00 0
Mi, 18.05. 2:00 0
Di, 17.05. 20:00 0
Di, 17.05. 14:00 0
Di, 17.05. 8:00 0
Di, 17.05. 2:00 0
Mo, 16.05. 20:00 0
Mo, 16.05. 14:00 0
Ortszeit Schneehöhe (cm)
Mi, 18.05. 11:30 0
Mi, 18.05. 11:20 0
Mi, 18.05. 11:10 0
Mi, 18.05. 11:00 0
Mi, 18.05. 10:50 0
Mi, 18.05. 10:40 0
Mi, 18.05. 10:30 0
Mi, 18.05. 10:00 0
Mi, 18.05. 9:30 0
Mi, 18.05. 9:00 0
Mi, 18.05. 8:30 0
Link zu dieser Seite / Seite empfehlen

Das Wetter in ...